Time;durP1;ratioP1;P1;durP2;ratioP2;P2;SDS_P1;SDS_P2;PMS_P1;PMS_P2;Temp;Humidity;BMP_temperature;BMP_pressure;BME280_temperature;BME280_humidity;BME280_pressure;Samples;Min_cycle;Max_cycle;Signal;HPM_P1;HPM_P2
2022/03/10 00:00:44;;;;;;;8.90;6.38;;;4.10;99.90;;;;;;5053524;28;20424;-57
2022/03/10 00:03:12;;;;;;;12.35;6.68;;;4.00;99.90;;;;;;5054482;28;20432;-57
2022/03/10 00:05:39;;;;;;;13.98;7.70;;;4.10;99.90;;;;;;5052583;28;20503;-56
2022/03/10 00:08:06;;;;;;;11.95;6.72;;;4.00;99.90;;;;;;5054025;28;20933;-57
2022/03/10 00:10:33;;;;;;;11.50;6.20;;;4.00;99.90;;;;;;5053111;28;20527;-54
2022/03/10 00:13:00;;;;;;;11.20;7.15;;;4.10;99.90;;;;;;5054660;28;20467;-56
2022/03/10 00:15:27;;;;;;;11.70;7.05;;;4.00;99.90;;;;;;5052711;28;20552;-56
2022/03/10 00:17:54;;;;;;;14.45;7.68;;;4.00;99.90;;;;;;5054689;28;20495;-55
2022/03/10 00:20:23;;;;;;;11.07;7.13;;;4.00;99.90;;;;;;5053069;28;20421;-57
2022/03/10 00:22:52;;;;;;;24.25;13.30;;;3.90;99.90;;;;;;5054257;28;20767;-57
2022/03/10 00:25:20;;;;;;;15.00;9.30;;;3.90;99.90;;;;;;5052609;28;20461;-56
2022/03/10 00:27:47;;;;;;;19.80;9.52;;;3.90;99.90;;;;;;5055553;28;20483;-56
2022/03/10 00:30:15;;;;;;;14.40;7.40;;;3.80;99.90;;;;;;5051389;28;20437;-56
2022/03/10 00:32:46;;;;;;;12.57;7.50;;;3.70;99.90;;;;;;5053442;28;20783;-55
2022/03/10 00:35:18;;;;;;;11.38;7.30;;;3.70;99.90;;;;;;5052400;28;20456;-54
2022/03/10 00:37:47;;;;;;;14.07;7.65;;;3.70;99.90;;;;;;5055098;28;20540;-56
2022/03/10 00:40:14;;;;;;;14.18;7.70;;;3.70;99.90;;;;;;5053179;28;20826;-56
2022/03/10 00:42:42;;;;;;;14.43;8.03;;;3.70;99.90;;;;;;5055124;28;20602;-56
2022/03/10 00:45:09;;;;;;;14.88;8.02;;;3.70;99.90;;;;;;5052941;28;20761;-56
2022/03/10 00:47:37;;;;;;;16.13;9.13;;;3.70;99.90;;;;;;5054605;28;20491;-57
2022/03/10 00:50:05;;;;;;;15.23;7.80;;;3.70;99.90;;;;;;5052216;28;20476;-56
2022/03/10 00:52:32;;;;;;;19.80;9.43;;;3.70;99.90;;;;;;5053584;28;20760;-56
2022/03/10 00:55:00;;;;;;;13.68;9.07;;;3.70;99.90;;;;;;5050695;28;20800;-57
2022/03/10 00:57:27;;;;;;;13.25;8.55;;;3.60;99.90;;;;;;5051547;28;20445;-58
2022/03/10 00:59:54;;;;;;;13.43;7.30;;;3.60;99.90;;;;;;5051312;28;20486;-56
2022/03/10 01:02:21;;;;;;;15.52;8.25;;;3.60;99.90;;;;;;5053500;28;20485;-55
2022/03/10 01:04:48;;;;;;;15.48;8.55;;;3.70;99.90;;;;;;5052657;28;20488;-56
2022/03/10 01:07:15;;;;;;;13.43;7.68;;;3.70;99.90;;;;;;5054864;28;20501;-57
2022/03/10 01:09:42;;;;;;;13.15;7.05;;;3.70;99.90;;;;;;5052056;28;20512;-54
2022/03/10 01:12:11;;;;;;;10.82;6.75;;;3.60;99.90;;;;;;5054143;28;20457;-54
2022/03/10 01:14:38;;;;;;;12.50;7.15;;;3.60;99.90;;;;;;5051939;28;20428;-55
2022/03/10 01:17:05;;;;;;;11.35;7.20;;;3.60;99.90;;;;;;5054652;28;20441;-55
2022/03/10 01:19:32;;;;;;;13.23;7.85;;;3.50;99.90;;;;;;5052080;28;20990;-56
2022/03/10 01:21:59;;;;;;;12.90;7.20;;;3.50;99.90;;;;;;5054760;28;20479;-57
2022/03/10 01:24:26;;;;;;;11.10;6.65;;;3.50;99.90;;;;;;5054668;28;20508;-54
2022/03/10 01:26:53;;;;;;;13.75;6.93;;;3.60;99.90;;;;;;5053494;28;20468;-57
2022/03/10 01:29:21;;;;;;;11.43;6.15;;;3.50;99.90;;;;;;5053389;28;20495;-56
2022/03/10 01:31:48;;;;;;;12.88;7.50;;;3.50;99.90;;;;;;5053468;28;20516;-56
2022/03/10 01:34:15;;;;;;;13.95;6.80;;;3.40;99.90;;;;;;5054730;28;20813;-57
2022/03/10 01:36:42;;;;;;;15.32;7.85;;;3.40;99.90;;;;;;5052179;28;20869;-57
2022/03/10 01:39:09;;;;;;;12.80;7.03;;;3.40;99.90;;;;;;5047582;28;20571;-55
2022/03/10 01:41:36;;;;;;;13.32;7.55;;;3.40;99.90;;;;;;5051358;28;20499;-56
2022/03/10 01:44:05;;;;;;;15.90;7.35;;;3.40;99.90;;;;;;5054092;28;20421;-56
2022/03/10 01:46:34;;;;;;;12.10;7.33;;;3.40;99.90;;;;;;5052503;28;20881;-55
2022/03/10 01:49:01;;;;;;;13.07;7.13;;;3.40;99.90;;;;;;5054542;28;20425;-55
2022/03/10 01:53:56;;;;;;;12.07;7.20;;;3.40;99.90;;;;;;5057008;23;20713;-56
2022/03/10 01:56:24;;;;;;;11.27;6.60;;;3.30;99.90;;;;;;5054952;28;20512;-56
2022/03/10 01:58:53;;;;;;;9.98;6.57;;;3.30;99.90;;;;;;5052181;28;20433;-56
2022/03/10 02:01:20;;;;;;;12.38;7.40;;;3.30;99.90;;;;;;5054207;28;20479;-56
2022/03/10 02:03:48;;;;;;;11.53;6.73;;;3.30;1.00;;;;;;5054087;28;20480;-56
2022/03/10 02:06:15;;;;;;;12.20;6.78;;;3.40;1.00;;;;;;5054553;28;20421;-57
2022/03/10 02:11:28;;;;;;;13.38;7.13;;;3.60;1.00;;;;;;5054624;28;20429;-57
2022/03/10 02:13:55;;;;;;;11.15;6.47;;;3.50;99.90;;;;;;5053293;28;20433;-56
2022/03/10 02:19:08;;;;;;;13.68;7.88;;;3.30;99.90;;;;;;5054456;28;20536;-56
2022/03/10 02:21:36;;;;;;;9.13;6.05;;;3.30;1.00;;;;;;5054537;28;20421;-56
2022/03/10 02:24:05;;;;;;;9.05;5.70;;;3.20;1.00;;;;;;5052403;28;20469;-56
2022/03/10 02:26:32;;;;;;;10.77;5.93;;;3.10;1.00;;;;;;5053224;28;20495;-56
2022/03/10 02:28:59;;;;;;;11.20;6.25;;;3.10;1.00;;;;;;5052311;28;20800;-55
2022/03/10 02:31:26;;;;;;;11.17;7.13;;;3.10;1.00;;;;;;5052688;28;20512;-56
2022/03/10 02:33:55;;;;;;;9.17;5.67;;;3.10;1.00;;;;;;5053561;28;20429;-56
2022/03/10 02:36:22;;;;;;;9.90;6.80;;;3.10;1.00;;;;;;5054225;28;20515;-57
2022/03/10 02:38:48;;;;;;;11.23;6.00;;;3.00;1.00;;;;;;5053069;28;20464;-54
2022/03/10 02:41:17;;;;;;;11.35;6.43;;;3.00;1.00;;;;;;5054316;28;20721;-56
2022/03/10 02:43:44;;;;;;;11.82;6.40;;;3.00;1.00;;;;;;5053303;28;20425;-56
2022/03/10 02:46:11;;;;;;;9.18;5.35;;;3.10;1.00;;;;;;5054309;28;20436;-58
2022/03/10 02:48:38;;;;;;;11.32;5.95;;;3.00;1.00;;;;;;5052393;28;20456;-56
2022/03/10 02:51:05;;;;;;;13.60;6.00;;;3.10;1.00;;;;;;5053862;28;20477;-55
2022/03/10 02:53:32;;;;;;;10.68;6.18;;;3.10;1.00;;;;;;5056320;28;20527;-57
2022/03/10 02:55:59;;;;;;;13.48;5.93;;;3.00;1.00;;;;;;5057805;28;20457;-56
2022/03/10 02:58:27;;;;;;;9.85;6.30;;;3.10;1.00;;;;;;5056160;28;20475;-56
2022/03/10 03:00:54;;;;;;;10.05;4.90;;;3.10;1.00;;;;;;5057506;28;20464;-56
2022/03/10 03:03:21;;;;;;;8.98;5.63;;;3.10;1.00;;;;;;5056263;28;20873;-56
2022/03/10 03:05:48;;;;;;;9.02;5.68;;;3.20;1.00;;;;;;5055243;28;20511;-56
2022/03/10 03:08:15;;;;;;;19.70;5.90;;;3.30;1.00;;;;;;5056132;28;20443;-56
2022/03/10 03:10:42;;;;;;;9.60;5.90;;;3.40;1.00;;;;;;5055695;28;20745;-56
2022/03/10 03:13:09;;;;;;;14.00;7.37;;;3.30;1.00;;;;;;5055833;28;20421;-55
2022/03/10 03:15:37;;;;;;;11.82;6.88;;;3.10;1.00;;;;;;5055996;28;20433;-56
2022/03/10 03:18:05;;;;;;;11.75;5.80;;;3.00;1.00;;;;;;5056399;28;20520;-54
2022/03/10 03:20:32;;;;;;;9.95;6.63;;;2.90;1.00;;;;;;5056653;28;20443;-57
2022/03/10 03:22:59;;;;;;;10.75;6.20;;;2.80;1.00;;;;;;5057048;28;20421;-53
2022/03/10 03:25:26;;;;;;;10.70;5.40;;;2.80;1.00;;;;;;5056083;28;20484;-56
2022/03/10 03:27:52;;;;;;;9.65;6.22;;;2.70;1.00;;;;;;5056908;28;20801;-54
2022/03/10 03:30:19;;;;;;;11.45;6.20;;;2.70;1.00;;;;;;5057011;28;20476;-56
2022/03/10 03:32:48;;;;;;;12.00;7.13;;;2.70;1.00;;;;;;5056741;28;20504;-56
2022/03/10 03:35:15;;;;;;;10.53;6.40;;;2.70;1.00;;;;;;5055532;28;20476;-55
2022/03/10 03:37:42;;;;;;;13.00;6.90;;;2.70;1.00;;;;;;5056575;28;20498;-54
2022/03/10 03:40:11;;;;;;;10.98;6.22;;;2.70;1.00;;;;;;5056360;28;20429;-55
2022/03/10 03:42:38;;;;;;;10.18;5.50;;;2.70;1.00;;;;;;5056324;28;20735;-54
2022/03/10 03:45:06;;;;;;;10.65;6.28;;;2.70;1.00;;;;;;5055735;28;20491;-53
2022/03/10 03:47:33;;;;;;;13.00;6.60;;;2.80;1.00;;;;;;5056405;28;20421;-56
2022/03/10 03:50:02;;;;;;;9.03;5.40;;;2.90;1.00;;;;;;5055920;28;20472;-57
2022/03/10 03:52:29;;;;;;;11.93;6.35;;;2.90;1.00;;;;;;5056501;28;20435;-57
2022/03/10 03:54:56;;;;;;;13.77;6.13;;;3.10;1.00;;;;;;5054887;28;20429;-57
2022/03/10 03:57:23;;;;;;;12.98;6.45;;;3.00;1.00;;;;;;5054230;28;20425;-56
2022/03/10 03:59:49;;;;;;;11.38;5.50;;;2.80;1.00;;;;;;5054834;28;20472;-56
2022/03/10 04:02:16;;;;;;;10.38;6.10;;;2.80;1.00;;;;;;5055599;28;20460;-56
2022/03/10 04:04:43;;;;;;;11.40;5.38;;;2.70;1.00;;;;;;5054165;28;20516;-54
2022/03/10 04:07:11;;;;;;;13.30;6.22;;;2.60;1.00;;;;;;5056221;28;20748;-56
2022/03/10 04:09:38;;;;;;;10.75;5.90;;;2.60;1.00;;;;;;5055847;28;20465;-56
2022/03/10 04:12:06;;;;;;;10.30;5.90;;;2.70;1.00;;;;;;5056417;28;20516;-55
2022/03/10 04:14:33;;;;;;;10.90;6.13;;;2.80;1.00;;;;;;5054227;28;20520;-57
2022/03/10 04:17:00;;;;;;;11.05;6.10;;;2.70;1.00;;;;;;5056769;28;20444;-52
2022/03/10 04:19:26;;;;;;;11.50;6.28;;;2.60;1.00;;;;;;5055152;28;20534;-56
2022/03/10 04:21:53;;;;;;;11.77;6.65;;;2.50;1.00;;;;;;5055735;28;20463;-57
2022/03/10 04:24:22;;;;;;;12.32;6.93;;;2.50;1.00;;;;;;5055013;28;20471;-56
2022/03/10 04:26:48;;;;;;;10.88;6.10;;;2.50;1.00;;;;;;5055400;28;20461;-57
2022/03/10 04:29:15;;;;;;;10.57;6.38;;;2.60;1.00;;;;;;5055481;28;20469;-54
2022/03/10 04:31:42;;;;;;;11.35;6.50;;;2.60;1.00;;;;;;5055585;28;20461;-55
2022/03/10 04:34:10;;;;;;;10.18;6.00;;;2.60;1.00;;;;;;5054736;28;20435;-55
2022/03/10 04:36:37;;;;;;;11.13;5.55;;;2.70;1.00;;;;;;5055944;28;20511;-56
2022/03/10 04:39:05;;;;;;;11.63;6.15;;;2.80;1.00;;;;;;5053927;28;20425;-56
2022/03/10 04:41:34;;;;;;;10.90;5.60;;;2.80;1.00;;;;;;5054281;28;20453;-54
2022/03/10 04:44:01;;;;;;;9.37;5.27;;;2.90;1.00;;;;;;5053065;28;20516;-56
2022/03/10 04:46:29;;;;;;;10.02;5.05;;;2.90;1.00;;;;;;5054035;28;20417;-56
2022/03/10 04:48:56;;;;;;;8.65;5.00;;;2.80;1.00;;;;;;5052638;28;20879;-56
2022/03/10 04:51:23;;;;;;;10.65;6.05;;;2.70;1.00;;;;;;5053771;28;20524;-56
2022/03/10 04:53:50;;;;;;;10.50;5.22;;;2.50;1.00;;;;;;5053479;28;20528;-55
2022/03/10 04:56:17;;;;;;;10.30;6.18;;;2.50;1.00;;;;;;5055551;28;20444;-59
2022/03/10 04:58:45;;;;;;;11.07;5.80;;;2.40;1.00;;;;;;5053685;28;20778;-56
2022/03/10 05:01:12;;;;;;;7.55;4.93;;;2.40;1.00;;;;;;5055604;28;20508;-53
2022/03/10 05:03:39;;;;;;;9.15;5.82;;;2.40;1.00;;;;;;5053445;28;20788;-55
2022/03/10 05:06:06;;;;;;;13.90;6.25;;;2.40;1.00;;;;;;5051808;28;20496;-57
2022/03/10 05:08:33;;;;;;;10.52;5.40;;;2.40;1.00;;;;;;5052208;28;20441;-57
2022/03/10 05:11:00;;;;;;;10.30;5.85;;;2.30;1.00;;;;;;5053064;28;20495;-56
2022/03/10 05:13:27;;;;;;;11.20;5.80;;;2.30;1.00;;;;;;5054174;28;20417;-55
2022/03/10 05:15:55;;;;;;;10.25;5.32;;;2.30;1.00;;;;;;5053953;28;20433;-56
2022/03/10 05:18:22;;;;;;;10.32;6.13;;;2.20;1.00;;;;;;5054205;28;20417;-56
2022/03/10 05:20:49;;;;;;;11.27;5.63;;;2.20;1.00;;;;;;5054178;28;20468;-56
2022/03/10 05:23:16;;;;;;;12.57;5.50;;;2.20;1.00;;;;;;5054814;28;20900;-56
2022/03/10 05:25:43;;;;;;;10.80;6.38;;;2.20;1.00;;;;;;5053978;28;20429;-55
2022/03/10 05:28:13;;;;;;;11.82;5.97;;;2.20;1.00;;;;;;5053270;28;20537;-54
2022/03/10 05:30:41;;;;;;;11.43;5.80;;;2.20;1.00;;;;;;5053487;28;20541;-55
2022/03/10 05:33:10;;;;;;;9.40;5.35;;;2.20;1.00;;;;;;5053508;28;20735;-52
2022/03/10 05:35:37;;;;;;;11.98;6.07;;;2.20;1.00;;;;;;5053954;28;20543;-54
2022/03/10 05:38:05;;;;;;;9.00;5.63;;;2.20;1.00;;;;;;5054169;28;20509;-56
2022/03/10 05:40:32;;;;;;;9.07;5.73;;;2.20;1.00;;;;;;5053239;28;20465;-54
2022/03/10 05:42:59;;;;;;;9.98;5.40;;;2.30;1.00;;;;;;5054515;28;20508;-56
2022/03/10 05:45:26;;;;;;;10.45;5.00;;;2.30;1.00;;;;;;5054289;28;20483;-56
2022/03/10 05:47:55;;;;;;;10.10;5.83;;;2.30;1.00;;;;;;5053974;28;20445;-56
2022/03/10 05:50:25;;;;;;;9.95;6.20;;;2.40;1.00;;;;;;5053418;28;20469;-54
2022/03/10 05:52:52;;;;;;;10.57;5.40;;;2.40;1.00;;;;;;5054481;28;20520;-56
2022/03/10 05:55:20;;;;;;;8.63;5.70;;;2.40;1.00;;;;;;5052955;28;20524;-54
2022/03/10 05:57:47;;;;;;;11.35;5.55;;;2.30;1.00;;;;;;5052865;28;20428;-55
2022/03/10 06:00:15;;;;;;;8.52;4.57;;;2.20;1.00;;;;;;5053159;28;20528;-57
2022/03/10 06:02:43;;;;;;;10.07;5.63;;;2.10;1.00;;;;;;5052826;28;20441;-58
2022/03/10 06:05:10;;;;;;;9.63;5.90;;;2.20;1.00;;;;;;5052830;28;20433;-58
2022/03/10 06:07:39;;;;;;;10.83;5.90;;;2.30;1.00;;;;;;5054021;28;20495;-58
2022/03/10 06:10:07;;;;;;;10.23;6.28;;;2.30;1.00;;;;;;5052862;28;20491;-58
2022/03/10 06:12:34;;;;;;;11.35;6.55;;;2.40;1.00;;;;;;5053365;28;20456;-57
2022/03/10 06:15:04;;;;;;;10.93;6.20;;;2.40;1.00;;;;;;5053219;28;20468;-54
2022/03/10 06:17:31;;;;;;;10.57;6.65;;;2.30;1.00;;;;;;5053396;28;20420;-57
2022/03/10 06:19:58;;;;;;;11.13;5.70;;;2.30;1.00;;;;;;5053517;28;20472;-56
2022/03/10 06:22:28;;;;;;;8.75;6.38;;;2.30;1.00;;;;;;5054508;28;20447;-56
2022/03/10 06:24:57;;;;;;;11.00;5.93;;;2.40;1.00;;;;;;5053681;28;20908;-56
2022/03/10 06:27:25;;;;;;;12.17;6.43;;;2.50;1.00;;;;;;5054987;28;20803;-54
2022/03/10 06:29:54;;;;;;;9.65;5.82;;;2.60;1.00;;;;;;5056368;28;20532;-57
2022/03/10 06:32:22;;;;;;;11.80;6.97;;;2.70;1.00;;;;;;5056659;28;20583;-54
2022/03/10 06:34:50;;;;;;;11.40;5.82;;;2.60;1.00;;;;;;5056414;28;20421;-56
2022/03/10 06:37:18;;;;;;;11.50;5.40;;;2.60;1.00;;;;;;5056673;28;20445;-54
2022/03/10 06:39:45;;;;;;;11.05;6.07;;;2.60;1.00;;;;;;5057462;28;20456;-56
2022/03/10 06:42:14;;;;;;;10.93;6.57;;;2.60;1.00;;;;;;5048757;28;20803;-53
2022/03/10 06:44:41;;;;;;;8.95;4.55;;;2.80;1.00;;;;;;5035312;28;20466;-58
2022/03/10 06:47:10;;;;;;;9.88;5.50;;;3.20;1.00;;;;;;5035904;28;20483;-56
2022/03/10 06:49:37;;;;;;;12.38;5.68;;;3.70;1.00;;;;;;5049315;28;20622;-56
2022/03/10 06:52:05;;;;;;;9.57;5.70;;;4.00;1.00;;;;;;5031520;28;20905;-57
2022/03/10 06:54:33;;;;;;;10.93;6.28;;;4.30;1.00;;;;;;5036979;28;20441;-58
2022/03/10 06:57:00;;;;;;;11.45;6.78;;;4.30;1.00;;;;;;5028643;28;20422;-57
2022/03/10 06:59:28;;;;;;;8.38;6.28;;;4.30;1.00;;;;;;5047328;28;20493;-56
2022/03/10 07:01:55;;;;;;;11.70;7.43;;;4.20;1.00;;;;;;5075351;28;20477;-58
2022/03/10 07:04:22;;;;;;;9.95;5.97;;;4.10;1.00;;;;;;5064417;28;20439;-56
2022/03/10 07:06:49;;;;;;;11.00;6.63;;;4.10;1.00;;;;;;5046892;28;20452;-57
2022/03/10 07:09:18;;;;;;;13.90;8.13;;;4.30;1.00;;;;;;5048740;28;20863;-56
2022/03/10 07:11:45;;;;;;;9.35;6.72;;;4.30;1.00;;;;;;5039044;28;20431;-55
2022/03/10 07:14:12;;;;;;;9.80;6.80;;;4.20;1.00;;;;;;5046052;28;20438;-55
2022/03/10 07:16:41;;;;;;;11.23;6.80;;;4.00;1.00;;;;;;5049978;28;20421;-54
2022/03/10 07:19:10;;;;;;;11.07;6.75;;;4.00;1.00;;;;;;5042756;28;20437;-53
2022/03/10 07:21:38;;;;;;;12.73;7.53;;;4.20;1.00;;;;;;5039239;28;20919;-56
2022/03/10 07:24:06;;;;;;;13.05;7.25;;;4.20;1.00;;;;;;5053505;28;20429;-55
2022/03/10 07:26:34;;;;;;;11.93;7.00;;;4.10;1.00;;;;;;5052009;28;20520;-57
2022/03/10 07:29:01;;;;;;;10.00;6.00;;;4.00;1.00;;;;;;5058389;28;20457;-57
2022/03/10 07:31:28;;;;;;;11.80;7.10;;;4.10;1.00;;;;;;5043489;28;20877;-54
2022/03/10 07:33:58;;;;;;;12.25;6.82;;;4.30;1.00;;;;;;5054012;28;20751;-54
2022/03/10 07:36:25;;;;;;;14.38;8.57;;;4.60;1.00;;;;;;5055103;28;20845;-56
2022/03/10 07:38:52;;;;;;;13.15;7.03;;;4.80;1.00;;;;;;5050235;28;20809;-57
2022/03/10 07:41:20;;;;;;;11.80;7.57;;;4.90;1.00;;;;;;5052405;28;20483;-57
2022/03/10 07:43:47;;;;;;;15.80;9.02;;;5.00;1.00;;;;;;5046373;28;20569;-53
2022/03/10 07:46:14;;;;;;;11.45;6.85;;;5.00;1.00;;;;;;5052410;28;20858;-55
2022/03/10 07:48:41;;;;;;;11.10;7.40;;;5.00;1.00;;;;;;5057283;28;20433;-56
2022/03/10 07:51:10;;;;;;;11.00;8.10;;;5.00;1.00;;;;;;5050630;28;20515;-55
2022/03/10 07:53:38;;;;;;;11.30;8.40;;;4.90;1.00;;;;;;5050647;28;20421;-57
2022/03/10 07:56:05;;;;;;;14.73;7.43;;;4.90;1.00;;;;;;5056179;28;20433;-56
2022/03/10 07:58:32;;;;;;;13.57;7.57;;;4.90;1.00;;;;;;5048543;28;20733;-58
2022/03/10 08:00:59;;;;;;;13.90;8.85;;;5.10;1.00;;;;;;5055204;28;20417;-57
2022/03/10 08:03:26;;;;;;;14.70;7.60;;;5.20;1.00;;;;;;5053609;28;20421;-58
2022/03/10 08:05:53;;;;;;;13.95;8.80;;;5.20;1.00;;;;;;5049917;28;20845;-57
2022/03/10 08:08:22;;;;;;;12.90;7.63;;;5.30;1.00;;;;;;5055175;28;20934;-57
2022/03/10 08:10:50;;;;;;;11.63;6.68;;;5.40;1.00;;;;;;5055253;28;20934;-57
2022/03/10 08:13:18;;;;;;;15.82;10.70;;;5.70;1.00;;;;;;5055641;28;20435;-60
2022/03/10 08:15:46;;;;;;;14.68;8.38;;;5.90;1.00;;;;;;5064149;28;20424;-58
2022/03/10 08:18:13;;;;;;;15.73;7.87;;;6.20;1.00;;;;;;5055353;28;20440;-58
2022/03/10 08:20:41;;;;;;;14.30;9.65;;;6.40;1.00;;;;;;5055022;28;20422;-58
2022/03/10 08:23:09;;;;;;;13.43;8.43;;;6.60;1.00;;;;;;5054588;28;20417;-58
2022/03/10 08:25:38;;;;;;;14.88;8.50;;;6.70;1.00;;;;;;5051565;28;20492;-57
2022/03/10 08:28:06;;;;;;;12.35;7.50;;;6.90;1.00;;;;;;5042773;28;20433;-57
2022/03/10 08:30:33;;;;;;;11.93;7.15;;;7.10;1.00;;;;;;5054310;28;20852;-58
2022/03/10 08:33:00;;;;;;;12.05;7.00;;;7.20;1.00;;;;;;5054034;28;20437;-58
2022/03/10 08:35:28;;;;;;;13.00;7.43;;;7.30;1.00;;;;;;5054007;28;20421;-59
2022/03/10 08:37:56;;;;;;;13.43;7.03;;;7.40;1.00;;;;;;5052493;28;20425;-58
2022/03/10 08:40:25;;;;;;;13.52;7.60;;;7.40;1.00;;;;;;5050696;28;20436;-58
2022/03/10 08:42:54;;;;;;;10.77;7.40;;;7.50;1.00;;;;;;5041978;28;20490;-59
2022/03/10 08:45:25;;;;;;;12.03;7.23;;;7.50;1.00;;;;;;5060814;28;20508;-58
2022/03/10 08:47:53;;;;;;;10.85;6.20;;;7.60;1.00;;;;;;5033934;28;20749;-57
2022/03/10 08:50:20;;;;;;;11.60;6.30;;;7.80;1.00;;;;;;5032671;28;20425;-57
2022/03/10 08:52:47;;;;;;;10.82;6.63;;;7.90;1.00;;;;;;5046428;28;20452;-57
2022/03/10 08:55:15;;;;;;;8.38;6.40;;;8.00;1.00;;;;;;5039014;28;20501;-72
2022/03/10 08:57:42;;;;;;;9.40;7.10;;;8.20;1.00;;;;;;5050578;28;20437;-58
2022/03/10 09:00:13;;;;;;;9.98;6.80;;;8.40;1.00;;;;;;5047460;28;20425;-58
2022/03/10 09:02:41;;;;;;;11.00;7.97;;;8.40;1.00;;;;;;5051553;28;20487;-59
2022/03/10 09:05:09;;;;;;;12.68;7.10;;;8.30;99.90;;;;;;5051935;28;20845;-58
2022/03/10 09:07:37;;;;;;;12.10;7.13;;;8.30;1.00;;;;;;5048969;28;20437;-61
2022/03/10 09:10:06;;;;;;;16.77;10.95;;;8.40;1.00;;;;;;5036980;28;20436;-58
2022/03/10 09:12:33;;;;;;;13.23;6.35;;;8.50;1.00;;;;;;5048890;28;20864;-58
2022/03/10 09:15:01;;;;;;;12.85;7.50;;;8.70;1.00;;;;;;5051766;28;20417;-59
2022/03/10 09:17:29;;;;;;;11.95;7.30;;;8.80;1.00;;;;;;5046907;28;20926;-57
2022/03/10 09:19:57;;;;;;;11.13;6.95;;;8.80;1.00;;;;;;5044828;28;20437;-61
2022/03/10 09:22:25;;;;;;;13.50;8.32;;;8.80;99.90;;;;;;5046389;28;20456;-59
2022/03/10 09:24:53;;;;;;;10.00;7.07;;;8.70;99.90;;;;;;5052488;28;20425;-59
2022/03/10 09:27:20;;;;;;;11.63;6.50;;;8.60;99.90;;;;;;5049104;28;20495;-59
2022/03/10 09:29:47;;;;;;;10.00;6.75;;;8.60;99.90;;;;;;5033774;28;20842;-59
2022/03/10 09:32:15;;;;;;;8.35;6.20;;;8.70;99.90;;;;;;5035373;28;21059;-59
2022/03/10 09:34:44;;;;;;;9.20;6.35;;;8.90;99.90;;;;;;5044727;28;20483;-60
2022/03/10 09:37:11;;;;;;;11.80;6.63;;;9.10;99.90;;;;;;5050084;28;20453;-61
2022/03/10 09:39:39;;;;;;;10.55;6.82;;;9.20;99.90;;;;;;5050681;28;20456;-61
2022/03/10 09:42:10;;;;;;;9.02;6.50;;;9.30;99.90;;;;;;5038216;28;20530;-61
2022/03/10 09:44:40;;;;;;;6.85;4.07;;;9.50;99.90;;;;;;5039309;28;20525;-60
2022/03/10 09:47:09;;;;;;;3.75;2.90;;;9.60;99.90;;;;;;5037565;28;20437;-60
2022/03/10 09:49:36;;;;;;;6.17;3.80;;;9.80;99.90;;;;;;5042855;28;20477;-60
2022/03/10 09:52:11;;;;;;;7.97;4.10;;;10.00;99.90;;;;;;5046693;28;20707;-58
2022/03/10 09:54:38;;;;;;;4.90;2.40;;;10.10;99.90;;;;;;5032206;28;20811;-58
2022/03/10 09:57:07;;;;;;;5.80;2.78;;;10.20;99.90;;;;;;5038204;28;20434;-59
2022/03/10 09:59:34;;;;;;;4.18;1.95;;;10.40;99.90;;;;;;5037204;28;20807;-58
2022/03/10 10:02:04;;;;;;;4.85;1.70;;;10.50;99.90;;;;;;5039507;28;20425;-60
2022/03/10 10:04:32;;;;;;;3.50;1.30;;;10.60;99.90;;;;;;5054245;28;21032;-58
2022/03/10 10:07:04;;;;;;;2.13;1.20;;;10.80;99.90;;;;;;5051664;28;20822;-58
2022/03/10 10:09:43;;;;;;;2.70;1.50;;;11.10;99.90;;;;;;5047839;28;20437;-59
2022/03/10 10:12:13;;;;;;;4.10;1.50;;;11.40;99.90;;;;;;5050609;28;20865;-58
2022/03/10 10:14:43;;;;;;;2.50;1.53;;;11.60;99.90;;;;;;5043933;28;20836;-59
2022/03/10 10:17:11;;;;;;;2.23;1.40;;;11.90;99.90;;;;;;5038765;28;20429;-59
2022/03/10 10:19:40;;;;;;;1.92;1.20;;;12.10;99.90;;;;;;5048157;28;20427;-58
2022/03/10 10:22:12;;;;;;;3.08;1.50;;;12.10;99.90;;;;;;5047289;28;20454;-58
2022/03/10 10:24:39;;;;;;;2.25;1.30;;;12.30;99.90;;;;;;5055967;28;20425;-58
2022/03/10 10:27:16;;;;;;;1.90;1.10;;;12.40;99.90;;;;;;5046487;28;20436;-61
2022/03/10 10:29:48;;;;;;;2.03;1.10;;;12.50;99.90;;;;;;5045900;28;20421;-59
2022/03/10 10:32:26;;;;;;;2.80;1.42;;;12.80;99.90;;;;;;5045663;28;20809;-59
2022/03/10 10:35:05;;;;;;;2.60;1.50;;;12.80;99.90;;;;;;5052764;28;20902;-58
2022/03/10 10:37:34;;;;;;;2.33;1.20;;;13.00;99.90;;;;;;5051611;28;20438;-59
2022/03/10 10:40:02;;;;;;;1.70;1.08;;;13.20;99.90;;;;;;5053929;28;20427;-58
2022/03/10 10:42:35;;;;;;;2.55;1.00;;;13.40;99.90;;;;;;5051662;28;20742;-59
2022/03/10 10:45:30;;;;;;;1.80;1.00;;;13.50;99.90;;;;;;5046540;28;20526;-59
2022/03/10 10:58:38;;;;;;;2.05;1.10;;;14.80;99.90;;;;;;5078529;28;20413;-59
2022/03/10 11:01:07;;;;;;;1.52;1.10;;;15.20;99.90;;;;;;5083715;28;20563;-59
2022/03/10 11:03:36;;;;;;;4.68;1.30;;;15.30;99.90;;;;;;5084181;28;21024;-59
2022/03/10 11:06:03;;;;;;;2.03;1.13;;;15.20;99.90;;;;;;5086656;28;20453;-59
2022/03/10 11:08:30;;;;;;;2.38;1.23;;;15.20;99.90;;;;;;5083988;28;20525;-59
2022/03/10 11:10:57;;;;;;;2.33;1.20;;;15.10;99.90;;;;;;5085082;28;20534;-59
2022/03/10 11:13:25;;;;;;;2.25;1.10;;;15.00;99.90;;;;;;5075568;28;20517;-59
2022/03/10 11:15:54;;;;;;;1.52;0.90;;;15.30;99.90;;;;;;5086053;28;20852;-59
2022/03/10 11:18:23;;;;;;;1.67;1.10;;;15.40;99.90;;;;;;5088278;28;20442;-59
2022/03/10 11:20:52;;;;;;;1.83;0.95;;;15.20;99.90;;;;;;5087849;28;20457;-59
2022/03/10 11:23:30;;;;;;;1.50;0.90;;;15.50;99.90;;;;;;5079562;28;20514;-60
2022/03/10 11:26:07;;;;;;;1.40;0.80;;;15.70;99.90;;;;;;5078655;28;20522;-59
2022/03/10 11:28:38;;;;;;;1.73;0.77;;;15.80;99.90;;;;;;5071322;28;20464;-59
2022/03/10 11:31:09;;;;;;;1.60;0.85;;;15.60;99.90;;;;;;5086789;28;20534;-59
2022/03/10 11:33:37;;;;;;;1.30;0.70;;;16.00;99.90;;;;;;5091105;28;20438;-60
2022/03/10 11:36:20;;;;;;;1.10;0.73;;;16.10;99.90;;;;;;5083735;28;20432;-60
2022/03/10 11:38:52;;;;;;;1.30;0.80;;;16.30;99.90;;;;;;5074049;28;20428;-60
2022/03/10 11:41:19;;;;;;;1.73;0.70;;;16.30;99.90;;;;;;5077512;28;20422;-60
2022/03/10 11:43:58;;;;;;;1.00;0.70;;;16.30;99.90;;;;;;5086327;28;20422;-60
2022/03/10 11:46:28;;;;;;;1.50;0.80;;;16.30;99.90;;;;;;5071993;28;20527;-60
2022/03/10 11:49:03;;;;;;;1.20;0.60;;;16.40;99.90;;;;;;5072613;28;20749;-60
2022/03/10 11:51:46;;;;;;;1.00;0.70;;;16.40;99.90;;;;;;5086960;28;20520;-60
2022/03/10 11:54:17;;;;;;;1.20;0.70;;;16.20;99.90;;;;;;5071055;28;21002;-60
2022/03/10 11:57:06;;;;;;;1.10;0.63;;;16.10;99.90;;;;;;5075635;28;20496;-60
2022/03/10 12:00:00;;;;;;;1.10;0.70;;;16.40;99.90;;;;;;5083767;28;20522;-61
2022/03/10 12:02:40;;;;;;;1.20;0.70;;;16.50;99.90;;;;;;5047426;28;21005;-60
2022/03/10 12:05:08;;;;;;;1.10;0.60;;;16.40;99.90;;;;;;5087737;28;20736;-60
2022/03/10 12:07:36;;;;;;;0.90;0.60;;;16.40;99.90;;;;;;5085271;28;20426;-62
2022/03/10 12:10:08;;;;;;;1.20;0.70;;;16.40;99.90;;;;;;5083186;28;20503;-61
2022/03/10 12:12:40;;;;;;;1.33;0.70;;;16.50;99.90;;;;;;5081834;28;20513;-60
2022/03/10 12:15:51;;;;;;;1.17;0.63;;;16.20;99.90;;;;;;5091324;28;21012;-59
2022/03/10 12:18:24;;;;;;;2.97;1.30;;;16.30;99.90;;;;;;5091400;28;20418;-60
2022/03/10 12:20:56;;;;;;;1.15;0.70;;;16.60;99.90;;;;;;5071662;28;20910;-60
2022/03/10 12:23:26;;;;;;;3.20;1.63;;;16.30;99.90;;;;;;5080335;28;20461;-59
2022/03/10 12:25:55;;;;;;;1.50;0.80;;;16.30;99.90;;;;;;5087471;28;20430;-59
2022/03/10 12:28:26;;;;;;;1.50;0.70;;;16.20;99.90;;;;;;5081954;28;20436;-59
2022/03/10 12:31:15;;;;;;;1.00;0.60;;;16.60;99.90;;;;;;5072119;28;20459;-59
2022/03/10 12:33:51;;;;;;;1.60;1.00;;;16.60;99.90;;;;;;5075139;28;20431;-59
2022/03/10 12:36:31;;;;;;;1.60;0.60;;;16.30;99.90;;;;;;5078335;28;20457;-60
2022/03/10 12:38:59;;;;;;;1.00;0.70;;;16.30;99.90;;;;;;5088831;28;20425;-60
2022/03/10 12:41:30;;;;;;;1.52;0.70;;;16.40;99.90;;;;;;5092100;28;20425;-60
2022/03/10 12:43:58;;;;;;;2.47;0.70;;;16.50;99.90;;;;;;5076764;28;20423;-59
2022/03/10 12:46:35;;;;;;;1.50;0.70;;;16.50;99.90;;;;;;5109195;27;20380;-60
2022/03/10 12:49:20;;;;;;;0.98;0.70;;;16.10;99.90;;;;;;5087373;28;20990;-60
2022/03/10 12:51:47;;;;;;;1.67;0.80;;;15.90;99.90;;;;;;5080747;28;20414;-60
2022/03/10 12:54:14;;;;;;;1.00;0.70;;;15.70;99.90;;;;;;5089116;28;20859;-60
2022/03/10 12:56:46;;;;;;;1.42;0.70;;;15.80;99.90;;;;;;5087426;28;21086;-61
2022/03/10 12:59:13;;;;;;;1.17;0.70;;;15.90;99.90;;;;;;5085594;28;20865;-62
2022/03/10 13:01:42;;;;;;;1.20;0.80;;;16.00;99.90;;;;;;5090319;28;20422;-62
2022/03/10 13:04:14;;;;;;;1.30;0.70;;;16.10;99.90;;;;;;5090312;28;20454;-62
2022/03/10 13:06:41;;;;;;;1.50;0.80;;;16.20;99.90;;;;;;5086488;28;20423;-62
2022/03/10 13:09:08;;;;;;;0.90;0.60;;;16.50;99.90;;;;;;5082744;28;20450;-62
2022/03/10 13:11:38;;;;;;;1.92;0.90;;;16.50;99.90;;;;;;5086449;28;20818;-62
2022/03/10 13:14:08;;;;;;;2.60;0.90;;;16.30;99.90;;;;;;5086859;28;20760;-63
2022/03/10 13:16:36;;;;;;;1.10;0.80;;;16.10;99.90;;;;;;5090224;28;20422;-63
2022/03/10 13:19:05;;;;;;;2.90;0.90;;;16.10;99.90;;;;;;5088313;28;20429;-62